Terminal Aerodrome Forecast
Issued by NWS Spokane, WA

Home | Current Version | Previous Version | Text Only | Print | Product List | Glossary On
Versions: 1 2 3 4 5 6 7 8 9 10 11 12 13 14 15 16 17 18 19 20 21 22 23
000
FTUS46 KOTX 032323
TAFGEG
TAF
KGEG 032323Z 0400/0424 26010G16KT P6SM FEW100
     FM040100 26009KT P6SM FEW100
     FM040900 17006KT P6SM SKC
     FM041900 26009KT P6SM FEW090=

USA.gov is the U.S. government's official web portal to all federal, state and local government web resources and services.